Time;durP1;ratioP1;P1;durP2;ratioP2;P2;SDS_P1;SDS_P2;PMS_P1;PMS_P2;Temp;Humidity;BMP_temperature;BMP_pressure;BME280_temperature;BME280_humidity;BME280_pressure;Samples;Min_cycle;Max_cycle;Signal;HPM_P1;HPM_P2
2023/08/27 00:00:10;;;;;;;6.80;2.95;;;;;;;;;;5091936;28;20172;-62
2023/08/27 00:02:37;;;;;;;4.82;2.60;;;;;;;;;;5070075;28;20048;-62
2023/08/27 00:05:04;;;;;;;6.20;2.70;;;;;;;;;;5074021;28;20060;-62
2023/08/27 00:07:31;;;;;;;4.55;2.60;;;;;;;;;;5072100;28;20052;-62
2023/08/27 00:09:57;;;;;;;5.50;2.53;;;;;;;;;;5073905;28;20102;-62
2023/08/27 00:12:27;;;;;;;6.03;2.65;;;;;;;;;;5059119;28;21018;-62
2023/08/27 00:14:54;;;;;;;6.00;2.47;;;;;;;;;;5039802;28;20048;-63
2023/08/27 00:17:21;;;;;;;5.32;2.47;;;;;;;;;;5036636;28;20060;-61
2023/08/27 00:19:48;;;;;;;5.07;2.60;;;;;;;;;;5038749;28;20586;-61
2023/08/27 00:22:15;;;;;;;5.22;2.53;;;;;;;;;;5047624;28;20490;-62
2023/08/27 00:24:41;;;;;;;5.43;2.38;;;;;;;;;;5062703;28;20056;-62
2023/08/27 00:27:08;;;;;;;5.05;2.30;;;;;;;;;;5056840;28;20052;-61
2023/08/27 00:29:36;;;;;;;5.95;2.20;;;;;;;;;;5061457;28;20078;-63
2023/08/27 00:32:03;;;;;;;5.28;2.08;;;;;;;;;;5061391;28;20048;-62
2023/08/27 00:34:33;;;;;;;4.35;2.22;;;;;;;;;;5057904;28;20253;-63
2023/08/27 00:37:00;;;;;;;6.30;3.47;;;;;;;;;;5075860;28;20052;-63
2023/08/27 00:39:27;;;;;;;5.95;3.40;;;;;;;;;;5081732;28;20048;-63
2023/08/27 00:41:54;;;;;;;8.45;4.50;;;;;;;;;;5079966;28;20484;-63
2023/08/27 00:44:20;;;;;;;6.55;3.47;;;;;;;;;;5071906;28;20055;-63
2023/08/27 00:46:49;;;;;;;4.70;2.50;;;;;;;;;;5076485;28;20052;-62
2023/08/27 00:49:16;;;;;;;;;;;;;;;;;;5079764;28;20162;-62
2023/08/27 00:51:43;;;;;;;6.03;2.72;;;;;;;;;;5080733;28;20037;-62
2023/08/27 00:54:14;;;;;;;5.43;2.78;;;;;;;;;;5095094;28;20096;-63
2023/08/27 00:56:44;;;;;;;7.00;2.53;;;;;;;;;;5091197;28;20061;-64
2023/08/27 00:59:10;;;;;;;5.63;2.85;;;;;;;;;;5059644;28;20048;-63
2023/08/27 01:01:39;;;;;;;6.75;3.35;;;;;;;;;;5062082;28;20577;-63
2023/08/27 01:04:13;;;;;;;6.65;3.30;;;;;;;;;;5059133;28;20063;-64
2023/08/27 01:06:40;;;;;;;6.05;3.33;;;;;;;;;;5065494;28;20130;-62
2023/08/27 01:09:17;;;;;;;8.43;3.55;;;;;;;;;;5078432;28;20052;-62
2023/08/27 01:11:53;;;;;;;7.35;3.08;;;;;;;;;;5077014;28;20122;-61
2023/08/27 01:14:21;;;;;;;5.00;2.67;;;;;;;;;;5076833;28;20058;-62
2023/08/27 01:16:49;;;;;;;4.82;2.42;;;;;;;;;;5074538;28;20121;-61
2023/08/27 01:19:18;;;;;;;4.28;1.80;;;;;;;;;;5079127;28;20091;-61
2023/08/27 01:21:46;;;;;;;;;;;;;;;;;;5083087;28;20130;-62
2023/08/27 01:24:13;;;;;;;2.35;1.25;;;;;;;;;;5074337;28;20607;-62
2023/08/27 01:26:45;;;;;;;2.88;1.45;;;;;;;;;;5065203;28;20052;-61
2023/08/27 01:29:23;;;;;;;4.70;2.40;;;;;;;;;;5083134;28;20137;-61
2023/08/27 01:31:58;;;;;;;12.85;5.35;;;;;;;;;;5082276;28;20060;-62
2023/08/27 01:34:25;;;;;;;7.85;3.72;;;;;;;;;;5073550;28;20074;-61
2023/08/27 01:36:54;;;;;;;6.10;2.97;;;;;;;;;;5076473;28;20066;-62
2023/08/27 01:39:20;;;;;;;;;;;;;;;;;;5079194;28;20137;-62
2023/08/27 01:41:47;;;;;;;4.43;1.95;;;;;;;;;;5081903;28;19979;-62
2023/08/27 01:44:14;;;;;;;4.78;2.03;;;;;;;;;;5073952;28;20059;-62
2023/08/27 01:46:41;;;;;;;4.82;1.88;;;;;;;;;;5066738;28;20144;-63
2023/08/27 01:49:07;;;;;;;3.25;1.58;;;;;;;;;;5082042;28;20048;-62
2023/08/27 01:51:34;;;;;;;4.68;1.90;;;;;;;;;;5082771;28;20051;-62
2023/08/27 01:54:02;;;;;;;7.97;1.75;;;;;;;;;;5088452;28;20087;-62
2023/08/27 01:56:29;;;;;;;4.65;1.98;;;;;;;;;;5068894;28;22213;-62
2023/08/27 01:58:56;;;;;;;4.40;1.88;;;;;;;;;;5094583;28;20051;-62
2023/08/27 02:01:22;;;;;;;4.40;1.50;;;;;;;;;;5086709;28;20213;-62
2023/08/27 02:03:49;;;;;;;3.25;1.52;;;;;;;;;;5056165;28;20063;-62
2023/08/27 02:06:16;;;;;;;5.88;1.75;;;;;;;;;;5075719;28;20048;-62
2023/08/27 02:08:43;;;;;;;6.20;1.70;;;;;;;;;;5078153;28;20044;-63
2023/08/27 02:11:11;;;;;;;4.10;1.67;;;;;;;;;;5080365;28;20117;-63
2023/08/27 02:13:38;;;;;;;6.45;1.52;;;;;;;;;;5076054;28;20168;-63
2023/08/27 02:16:07;;;;;;;2.97;1.70;;;;;;;;;;5077899;28;20064;-62
2023/08/27 02:18:34;;;;;;;2.35;1.45;;;;;;;;;;5075046;28;20142;-62
2023/08/27 02:21:02;;;;;;;4.80;1.88;;;;;;;;;;5075314;28;20056;-62
2023/08/27 02:23:28;;;;;;;2.92;1.70;;;;;;;;;;5079347;28;20134;-62
2023/08/27 02:25:55;;;;;;;3.55;1.80;;;;;;;;;;5065723;28;20200;-62
2023/08/27 02:28:24;;;;;;;6.13;1.83;;;;;;;;;;5085864;28;20112;-62
2023/08/27 02:33:26;;;;;;;3.72;1.67;;;;;;;;;;5128489;22;20053;-62
2023/08/27 02:35:52;;;;;;;3.10;1.50;;;;;;;;;;5025961;28;20052;-62
2023/08/27 02:38:19;;;;;;;4.65;2.30;;;;;;;;;;5020702;28;20046;-61
2023/08/27 02:40:46;;;;;;;3.47;2.10;;;;;;;;;;5023322;28;20065;-61
2023/08/27 02:43:13;;;;;;;5.68;2.53;;;;;;;;;;5034568;28;20148;-61
2023/08/27 02:45:41;;;;;;;5.63;2.13;;;;;;;;;;5029804;28;20055;-61
2023/08/27 02:48:08;;;;;;;5.18;2.45;;;;;;;;;;5031177;28;20100;-62
2023/08/27 02:50:35;;;;;;;5.97;2.83;;;;;;;;;;5025172;28;20105;-62
2023/08/27 02:53:01;;;;;;;4.78;2.50;;;;;;;;;;5024405;28;20460;-63
2023/08/27 02:55:28;;;;;;;5.65;2.40;;;;;;;;;;5017875;28;20055;-62
2023/08/27 02:57:55;;;;;;;4.13;1.90;;;;;;;;;;5024789;28;20114;-62
2023/08/27 03:00:21;;;;;;;4.45;1.75;;;;;;;;;;5017274;28;20181;-62
2023/08/27 03:02:50;;;;;;;3.78;1.55;;;;;;;;;;5023468;28;20085;-62
2023/08/27 03:05:16;;;;;;;5.25;1.85;;;;;;;;;;5018983;28;20167;-62
2023/08/27 03:07:43;;;;;;;4.63;1.80;;;;;;;;;;5025537;28;20050;-62
2023/08/27 03:10:10;;;;;;;4.20;1.73;;;;;;;;;;5018426;28;20045;-62
2023/08/27 03:12:37;;;;;;;3.47;1.60;;;;;;;;;;5025864;28;20076;-62
2023/08/27 03:15:05;;;;;;;3.47;1.70;;;;;;;;;;5022052;28;20171;-62
2023/08/27 03:17:31;;;;;;;2.60;1.38;;;;;;;;;;5024463;28;20099;-62
2023/08/27 03:20:00;;;;;;;5.22;2.05;;;;;;;;;;5024700;28;20053;-62
2023/08/27 03:22:27;;;;;;;3.40;1.60;;;;;;;;;;5025726;28;20071;-62
2023/08/27 03:24:54;;;;;;;2.55;1.35;;;;;;;;;;5031793;28;20057;-62
2023/08/27 03:27:20;;;;;;;3.38;1.63;;;;;;;;;;5027101;28;20131;-66
2023/08/27 03:29:47;;;;;;;2.35;1.27;;;;;;;;;;5023283;28;20049;-62
2023/08/27 03:32:15;;;;;;;2.92;1.50;;;;;;;;;;5013324;28;20046;-63
2023/08/27 03:34:41;;;;;;;3.00;1.58;;;;;;;;;;5009359;28;20059;-63
2023/08/27 03:37:09;;;;;;;3.67;1.55;;;;;;;;;;5022508;28;20060;-63
2023/08/27 03:39:36;;;;;;;4.30;1.70;;;;;;;;;;5024922;28;20061;-63
2023/08/27 03:42:04;;;;;;;4.10;1.45;;;;;;;;;;5023730;28;20049;-63
2023/08/27 03:44:31;;;;;;;5.25;1.85;;;;;;;;;;5016624;28;20045;-63
2023/08/27 03:46:57;;;;;;;2.88;1.40;;;;;;;;;;5025070;28;20164;-63
2023/08/27 03:49:24;;;;;;;4.15;1.88;;;;;;;;;;5035274;28;20276;-62
2023/08/27 03:51:51;;;;;;;3.90;1.80;;;;;;;;;;5057045;28;20053;-63
2023/08/27 03:54:19;;;;;;;2.75;1.67;;;;;;;;;;5013889;28;20045;-64
2023/08/27 03:56:46;;;;;;;4.90;1.67;;;;;;;;;;5029021;28;20049;-62
2023/08/27 03:59:12;;;;;;;4.65;1.75;;;;;;;;;;5027205;28;20136;-62
2023/08/27 04:01:39;;;;;;;7.63;1.92;;;;;;;;;;5025515;28;20243;-63
2023/08/27 04:04:06;;;;;;;5.95;1.83;;;;;;;;;;5016062;28;20064;-62
2023/08/27 04:06:32;;;;;;;5.28;1.80;;;;;;;;;;5018347;28;20140;-63
2023/08/27 04:08:59;;;;;;;3.90;1.60;;;;;;;;;;5029922;28;20116;-62
2023/08/27 04:11:27;;;;;;;3.65;1.90;;;;;;;;;;5033125;28;20115;-63
2023/08/27 04:13:54;;;;;;;4.28;1.65;;;;;;;;;;5039074;28;20136;-62
2023/08/27 04:16:21;;;;;;;4.68;1.88;;;;;;;;;;5038970;28;20064;-62
2023/08/27 04:18:47;;;;;;;4.28;2.05;;;;;;;;;;5044761;28;20107;-61
2023/08/27 04:21:14;;;;;;;6.75;1.70;;;;;;;;;;5041600;28;20053;-63
2023/08/27 04:23:41;;;;;;;3.30;1.58;;;;;;;;;;5020686;28;20072;-63
2023/08/27 04:26:07;;;;;;;2.50;1.38;;;;;;;;;;5036626;28;20148;-62
2023/08/27 04:28:36;;;;;;;3.97;1.40;;;;;;;;;;5017766;28;21472;-62
2023/08/27 04:31:03;;;;;;;4.28;1.17;;;;;;;;;;5025960;28;20064;-63
2023/08/27 04:33:30;;;;;;;2.83;1.23;;;;;;;;;;5023095;28;20056;-61
2023/08/27 04:35:57;;;;;;;4.18;1.67;;;;;;;;;;5026442;28;20061;-61
2023/08/27 04:38:23;;;;;;;5.13;1.98;;;;;;;;;;5056653;28;20099;-61
2023/08/27 04:40:51;;;;;;;4.05;1.92;;;;;;;;;;5062461;28;20063;-62
2023/08/27 04:43:17;;;;;;;4.40;2.10;;;;;;;;;;5049733;28;20053;-62
2023/08/27 04:45:46;;;;;;;3.83;2.00;;;;;;;;;;5039002;28;20076;-62
2023/08/27 04:48:12;;;;;;;4.10;1.88;;;;;;;;;;5040294;28;20053;-62
2023/08/27 04:50:39;;;;;;;4.13;1.90;;;;;;;;;;5044705;28;20236;-62
2023/08/27 04:53:06;;;;;;;4.78;1.85;;;;;;;;;;5055094;28;20067;-62
2023/08/27 04:55:32;;;;;;;6.22;2.17;;;;;;;;;;5057808;28;20058;-62
2023/08/27 04:57:59;;;;;;;2.97;1.67;;;;;;;;;;5063493;28;20108;-62
2023/08/27 05:00:26;;;;;;;4.50;2.15;;;;;;;;;;5055862;28;20098;-62
2023/08/27 05:02:54;;;;;;;6.28;2.22;;;;;;;;;;5057550;28;20133;-62
2023/08/27 05:05:20;;;;;;;3.72;2.10;;;;;;;;;;5047447;28;20113;-62
2023/08/27 05:07:47;;;;;;;5.40;2.53;;;;;;;;;;5042186;28;20147;-62
2023/08/27 05:10:14;;;;;;;5.38;2.88;;;;;;;;;;5036354;28;20045;-63
2023/08/27 05:12:41;;;;;;;5.75;2.65;;;;;;;;;;5044301;28;20057;-62
2023/08/27 05:15:08;;;;;;;5.25;2.15;;;;;;;;;;5033710;28;20132;-61
2023/08/27 05:17:35;;;;;;;7.53;2.47;;;;;;;;;;5041641;28;20122;-61
2023/08/27 05:20:07;;;;;;;11.00;1.83;;;;;;;;;;5021841;28;20296;-62
2023/08/27 05:22:33;;;;;;;6.07;2.08;;;;;;;;;;5023949;28;20061;-61
2023/08/27 05:25:00;;;;;;;8.30;2.15;;;;;;;;;;4987765;28;20064;-62
2023/08/27 05:27:27;;;;;;;6.22;3.40;;;;;;;;;;5028127;28;20096;-62
2023/08/27 05:29:53;;;;;;;5.18;2.75;;;;;;;;;;5025045;28;20144;-63
2023/08/27 05:32:20;;;;;;;5.95;2.83;;;;;;;;;;5017764;28;20085;-63
2023/08/27 05:34:47;;;;;;;6.13;2.63;;;;;;;;;;5019904;28;20077;-62
2023/08/27 05:37:15;;;;;;;4.45;2.22;;;;;;;;;;5025189;28;20058;-60
2023/08/27 05:39:42;;;;;;;6.00;1.90;;;;;;;;;;5039060;28;20057;-62
2023/08/27 05:42:08;;;;;;;3.70;1.83;;;;;;;;;;5020439;28;20144;-61
2023/08/27 05:44:37;;;;;;;5.43;2.28;;;;;;;;;;5007714;28;20049;-63
2023/08/27 05:47:04;;;;;;;4.30;1.90;;;;;;;;;;5022732;28;20099;-61
2023/08/27 05:49:31;;;;;;;4.13;2.20;;;;;;;;;;5021773;28;20111;-62
2023/08/27 05:51:58;;;;;;;5.85;2.60;;;;;;;;;;5023569;28;20058;-60
2023/08/27 05:54:26;;;;;;;6.80;3.13;;;;;;;;;;5013247;28;20053;-61
2023/08/27 05:56:52;;;;;;;5.40;2.45;;;;;;;;;;5022481;28;20061;-61
2023/08/27 05:59:19;;;;;;;4.47;2.15;;;;;;;;;;5021339;28;20045;-61
2023/08/27 06:01:46;;;;;;;3.78;2.03;;;;;;;;;;5022649;28;20081;-61
2023/08/27 06:04:15;;;;;;;4.40;2.13;;;;;;;;;;5015307;28;20053;-62
2023/08/27 06:06:42;;;;;;;3.95;2.13;;;;;;;;;;5043802;28;20061;-60
2023/08/27 06:09:09;;;;;;;7.50;2.47;;;;;;;;;;5042180;28;20136;-61
2023/08/27 06:11:37;;;;;;;9.40;2.67;;;;;;;;;;5040791;28;20114;-60
2023/08/27 06:14:05;;;;;;;4.22;2.05;;;;;;;;;;5036155;28;20062;-62
2023/08/27 06:16:32;;;;;;;7.28;2.28;;;;;;;;;;5037049;28;20061;-62
2023/08/27 06:18:58;;;;;;;7.60;1.80;;;;;;;;;;5058603;28;20049;-61
2023/08/27 06:21:25;;;;;;;3.88;1.77;;;;;;;;;;5036694;28;20049;-62
2023/08/27 06:23:52;;;;;;;3.72;1.80;;;;;;;;;;5018267;28;20057;-61
2023/08/27 06:26:18;;;;;;;2.97;1.55;;;;;;;;;;5017334;28;20049;-60
2023/08/27 06:28:47;;;;;;;3.42;1.80;;;;;;;;;;5022690;28;20061;-60
2023/08/27 06:31:14;;;;;;;;;;;;;;;;;;5023728;28;20103;-61
2023/08/27 06:33:40;;;;;;;5.63;1.90;;;;;;;;;;5021123;28;19984;-62
2023/08/27 06:36:07;;;;;;;4.57;2.05;;;;;;;;;;5031938;28;20117;-61
2023/08/27 06:38:34;;;;;;;3.75;2.05;;;;;;;;;;5042047;28;20053;-62
2023/08/27 06:41:01;;;;;;;4.18;2.00;;;;;;;;;;5045149;28;20138;-62
2023/08/27 06:43:29;;;;;;;5.00;2.20;;;;;;;;;;5041127;28;20142;-61
2023/08/27 06:45:57;;;;;;;6.82;2.25;;;;;;;;;;5049424;28;20087;-61
2023/08/27 06:48:23;;;;;;;6.60;2.10;;;;;;;;;;5055440;28;20060;-61
2023/08/27 06:50:50;;;;;;;4.60;1.83;;;;;;;;;;5062526;28;20056;-61
2023/08/27 06:53:18;;;;;;;4.53;2.03;;;;;;;;;;5043649;28;20057;-61
2023/08/27 06:55:44;;;;;;;5.80;1.77;;;;;;;;;;5016077;28;20061;-62
2023/08/27 06:58:11;;;;;;;3.40;1.70;;;;;;;;;;5032906;28;20049;-62
2023/08/27 07:00:39;;;;;;;6.95;2.17;;;;;;;;;;5043608;28;20064;-62
2023/08/27 07:03:08;;;;;;;3.80;1.65;;;;;;;;;;5045820;28;20053;-62
2023/08/27 07:05:35;;;;;;;3.90;1.80;;;;;;;;;;5028213;28;20053;-61
2023/08/27 07:08:02;;;;;;;3.92;1.63;;;;;;;;;;5045270;28;20059;-62
2023/08/27 07:10:29;;;;;;;3.75;1.70;;;;;;;;;;5037260;28;20076;-62
2023/08/27 07:12:55;;;;;;;6.70;2.10;;;;;;;;;;5041766;28;20065;-61
2023/08/27 07:15:22;;;;;;;5.72;1.90;;;;;;;;;;5035440;28;20056;-61
2023/08/27 07:17:49;;;;;;;6.60;1.90;;;;;;;;;;5040526;28;20057;-61
2023/08/27 07:20:17;;;;;;;8.95;2.90;;;;;;;;;;5036251;28;20221;-62
2023/08/27 07:22:44;;;;;;;9.43;3.42;;;;;;;;;;5043106;28;20164;-61
2023/08/27 07:25:11;;;;;;;4.97;2.55;;;;;;;;;;5031680;28;20856;-61
2023/08/27 07:27:38;;;;;;;5.80;2.40;;;;;;;;;;5046821;28;20156;-62
2023/08/27 07:30:07;;;;;;;11.48;2.53;;;;;;;;;;5044574;28;20145;-62
2023/08/27 07:32:34;;;;;;;5.38;2.42;;;;;;;;;;5042100;28;20067;-62
2023/08/27 07:35:00;;;;;;;6.32;2.45;;;;;;;;;;5030668;28;20052;-62
2023/08/27 07:37:29;;;;;;;6.00;2.38;;;;;;;;;;5061065;28;20056;-62
2023/08/27 07:39:56;;;;;;;10.70;2.97;;;;;;;;;;5046649;28;20049;-61
2023/08/27 07:42:22;;;;;;;8.50;3.10;;;;;;;;;;5039822;28;20053;-62
2023/08/27 07:44:49;;;;;;;6.60;2.65;;;;;;;;;;5041472;28;20067;-61
2023/08/27 07:47:16;;;;;;;9.10;3.53;;;;;;;;;;5045794;28;20110;-62
2023/08/27 07:49:43;;;;;;;10.63;3.75;;;;;;;;;;5059454;28;20049;-63
2023/08/27 07:52:10;;;;;;;10.80;4.28;;;;;;;;;;5046791;28;20072;-64
2023/08/27 07:54:38;;;;;;;20.15;7.15;;;;;;;;;;5044587;28;20061;-63
2023/08/27 07:57:05;;;;;;;27.13;14.63;;;;;;;;;;5059252;28;20056;-60
2023/08/27 07:59:32;;;;;;;9.48;4.57;;;;;;;;;;5063045;28;20053;-62
2023/08/27 08:01:59;;;;;;;9.68;4.95;;;;;;;;;;5067279;28;20049;-61
2023/08/27 08:04:26;;;;;;;9.70;4.47;;;;;;;;;;5026055;28;20138;-62
2023/08/27 08:06:53;;;;;;;10.55;5.35;;;;;;;;;;5039157;28;20053;-62
2023/08/27 08:09:20;;;;;;;8.85;4.65;;;;;;;;;;5044471;28;20048;-62
2023/08/27 08:11:48;;;;;;;10.07;4.47;;;;;;;;;;5047055;28;20112;-61
2023/08/27 08:14:17;;;;;;;10.80;4.97;;;;;;;;;;5020560;28;22646;-61
2023/08/27 08:16:44;;;;;;;9.25;5.00;;;;;;;;;;5064513;28;20075;-61
2023/08/27 08:19:12;;;;;;;12.60;5.70;;;;;;;;;;5063087;28;20053;-61
2023/08/27 08:21:39;;;;;;;10.02;5.22;;;;;;;;;;5057375;28;20060;-61
2023/08/27 08:24:06;;;;;;;14.00;5.53;;;;;;;;;;5039346;28;20056;-61
2023/08/27 08:26:34;;;;;;;10.80;5.55;;;;;;;;;;5039104;28;20156;-60
2023/08/27 08:29:02;;;;;;;10.73;5.07;;;;;;;;;;5022669;28;20053;-61
2023/08/27 08:31:29;;;;;;;15.27;5.55;;;;;;;;;;5021274;28;20617;-62
2023/08/27 08:33:56;;;;;;;12.07;5.47;;;;;;;;;;5018561;28;20061;-61
2023/08/27 08:36:23;;;;;;;7.90;4.50;;;;;;;;;;5014988;28;20222;-61
2023/08/27 08:38:50;;;;;;;10.88;4.55;;;;;;;;;;5024932;28;20045;-62
2023/08/27 08:41:20;;;;;;;7.22;4.40;;;;;;;;;;5023907;28;20061;-61
2023/08/27 08:43:52;;;;;;;9.65;4.75;;;;;;;;;;5010275;28;20088;-63
2023/08/27 08:46:21;;;;;;;9.93;5.03;;;;;;;;;;5025986;28;20051;-61
2023/08/27 08:48:50;;;;;;;;;;;;;;;;;;5068934;28;20049;-61
2023/08/27 08:51:22;;;;;;;7.43;4.18;;;;;;;;;;5046682;28;19924;-61
2023/08/27 08:53:51;;;;;;;16.05;6.97;;;;;;;;;;5075912;28;20049;-63
2023/08/27 08:56:24;;;;;;;11.40;5.28;;;;;;;;;;5051356;28;20138;-61
2023/08/27 08:58:55;;;;;;;12.55;4.50;;;;;;;;;;5024968;28;20041;-61
2023/08/27 09:01:25;;;;;;;7.00;3.47;;;;;;;;;;5026262;28;20111;-61
2023/08/27 09:03:53;;;;;;;9.65;4.55;;;;;;;;;;5020651;28;20046;-60
2023/08/27 09:06:20;;;;;;;7.35;3.67;;;;;;;;;;4997082;28;20136;-61
2023/08/27 09:08:47;;;;;;;7.88;3.97;;;;;;;;;;5045607;28;20049;-61
2023/08/27 09:11:15;;;;;;;7.60;3.90;;;;;;;;;;5025712;28;20130;-61
2023/08/27 09:13:42;;;;;;;8.07;4.10;;;;;;;;;;5045743;28;20784;-62
2023/08/27 09:16:09;;;;;;;12.60;4.20;;;;;;;;;;5041874;28;20184;-61
2023/08/27 09:18:38;;;;;;;10.02;4.32;;;;;;;;;;5021975;28;20061;-61
2023/08/27 09:21:06;;;;;;;12.27;5.38;;;;;;;;;;5024135;28;20114;-61
2023/08/27 09:23:37;;;;;;;11.02;6.18;;;;;;;;;;5055679;28;20149;-61
2023/08/27 09:26:05;;;;;;;17.65;9.70;;;;;;;;;;5030488;28;20117;-62
2023/08/27 09:28:33;;;;;;;9.13;4.25;;;;;;;;;;5043647;28;20064;-61
2023/08/27 09:31:00;;;;;;;8.20;3.93;;;;;;;;;;5044785;28;20226;-60
2023/08/27 09:33:40;;;;;;;9.90;4.13;;;;;;;;;;5042706;28;20322;-61
2023/08/27 09:36:11;;;;;;;11.23;5.32;;;;;;;;;;5026463;28;20049;-61
2023/08/27 09:38:39;;;;;;;54.30;23.40;;;;;;;;;;5041933;28;20092;-60
2023/08/27 09:41:16;;;;;;;11.73;5.32;;;;;;;;;;5042726;28;20123;-61
2023/08/27 09:43:52;;;;;;;5.97;3.13;;;;;;;;;;5040773;28;20057;-61
2023/08/27 09:46:20;;;;;;;5.95;2.20;;;;;;;;;;5024638;28;20053;-60
2023/08/27 09:48:57;;;;;;;4.60;2.20;;;;;;;;;;5044291;28;20057;-61
2023/08/27 09:51:24;;;;;;;5.68;2.08;;;;;;;;;;5043536;28;20064;-62
2023/08/27 09:53:51;;;;;;;4.05;1.70;;;;;;;;;;5033904;28;20045;-61
2023/08/27 09:56:18;;;;;;;3.58;1.83;;;;;;;;;;5030608;28;20102;-61
2023/08/27 09:58:45;;;;;;;3.75;1.50;;;;;;;;;;5043869;28;20158;-62
2023/08/27 10:01:11;;;;;;;7.20;1.60;;;;;;;;;;5041560;28;20052;-61
2023/08/27 10:03:38;;;;;;;6.05;1.60;;;;;;;;;;5041997;28;20079;-61
2023/08/27 10:06:07;;;;;;;1.60;1.02;;;;;;;;;;5026546;28;20056;-61
2023/08/27 10:08:33;;;;;;;;;;;;;;;;;;5035683;28;20884;-61
2023/08/27 10:11:10;;;;;;;2.03;0.82;;;;;;;;;;5058791;28;19932;-63
2023/08/27 10:13:38;;;;;;;2.28;0.70;;;;;;;;;;5023884;28;20049;-63
2023/08/27 10:16:05;;;;;;;2.65;0.80;;;;;;;;;;5018418;28;20053;-61
2023/08/27 10:18:34;;;;;;;1.77;0.70;;;;;;;;;;5017521;28;20069;-61
2023/08/27 10:21:01;;;;;;;2.10;0.85;;;;;;;;;;5042818;28;20052;-61
2023/08/27 10:23:32;;;;;;;7.10;2.40;;;;;;;;;;5042029;28;20060;-61
2023/08/27 10:26:01;;;;;;;5.53;1.50;;;;;;;;;;5029519;28;20084;-61
2023/08/27 10:28:29;;;;;;;4.88;1.08;;;;;;;;;;5027519;28;20053;-62
2023/08/27 10:30:59;;;;;;;3.07;1.17;;;;;;;;;;5020518;28;20069;-61
2023/08/27 10:33:27;;;;;;;6.38;1.20;;;;;;;;;;5019981;28;20293;-62
2023/08/27 10:35:55;;;;;;;3.08;0.80;;;;;;;;;;5015776;28;20103;-61
2023/08/27 10:38:25;;;;;;;6.88;0.90;;;;;;;;;;5015045;28;20053;-62
2023/08/27 10:40:54;;;;;;;1.38;0.73;;;;;;;;;;5040037;28;20114;-62
2023/08/27 10:43:21;;;;;;;2.92;0.85;;;;;;;;;;5036716;28;20042;-62
2023/08/27 10:45:48;;;;;;;2.47;1.00;;;;;;;;;;5008115;28;20073;-61
2023/08/27 10:48:39;;;;;;;3.65;1.20;;;;;;;;;;5017844;28;20092;-62
2023/08/27 10:51:49;;;;;;;;;;;;;;;;;;;;;
2023/08/27 10:54:32;;;;;;;5.43;2.75;;;;;;;;;;4939708;28;21035;-62
2023/08/27 10:57:16;;;;;;;4.43;1.40;;;;;;;;;;5055083;28;20088;-64
2023/08/27 10:59:44;;;;;;;5.30;1.27;;;;;;;;;;5063004;28;20045;-62
2023/08/27 11:02:10;;;;;;;7.00;1.65;;;;;;;;;;5042174;28;20139;-63
2023/08/27 11:04:39;;;;;;;5.82;1.60;;;;;;;;;;5021203;28;20080;-64
2023/08/27 11:07:10;;;;;;;;;;;;;;;;;;5044609;28;20053;-64
2023/08/27 11:09:45;;;;;;;3.38;1.13;;;;;;;;;;5043159;28;19933;-64
2023/08/27 11:12:21;;;;;;;3.35;1.50;;;;;;;;;;5035283;28;20156;-65
2023/08/27 11:14:48;;;;;;;4.22;1.40;;;;;;;;;;5029166;28;20059;-65
2023/08/27 11:17:23;;;;;;;7.07;1.20;;;;;;;;;;5045160;28;20056;-64
2023/08/27 11:19:50;;;;;;;2.47;1.30;;;;;;;;;;5040154;28;20065;-64
2023/08/27 11:22:19;;;;;;;3.92;1.40;;;;;;;;;;5035098;28;20053;-64
2023/08/27 11:24:48;;;;;;;2.88;1.30;;;;;;;;;;5029977;28;20136;-64
2023/08/27 11:27:17;;;;;;;2.70;1.15;;;;;;;;;;5027788;28;20113;-64
2023/08/27 11:29:46;;;;;;;3.47;1.55;;;;;;;;;;5000912;28;20112;-64
2023/08/27 11:32:14;;;;;;;6.30;1.42;;;;;;;;;;4996114;28;20062;-63
2023/08/27 11:34:42;;;;;;;8.18;5.10;;;;;;;;;;5002584;28;20127;-61
2023/08/27 11:37:09;;;;;;;4.90;1.90;;;;;;;;;;5022459;28;20125;-62
2023/08/27 11:39:37;;;;;;;2.70;1.23;;;;;;;;;;5036737;28;20064;-62
2023/08/27 11:42:10;;;;;;;2.75;1.40;;;;;;;;;;5041853;28;20053;-62
2023/08/27 11:44:46;;;;;;;2.75;1.20;;;;;;;;;;5035464;28;20049;-62
2023/08/27 11:47:12;;;;;;;4.40;1.15;;;;;;;;;;5041858;28;20079;-62
2023/08/27 11:49:40;;;;;;;3.63;1.60;;;;;;;;;;5041814;28;20056;-61
2023/08/27 11:52:10;;;;;;;4.20;1.63;;;;;;;;;;5040119;28;20075;-61
2023/08/27 11:54:37;;;;;;;6.72;2.10;;;;;;;;;;5027211;28;20048;-62
2023/08/27 11:57:06;;;;;;;7.22;2.28;;;;;;;;;;5040921;28;20053;-62
2023/08/27 11:59:33;;;;;;;3.80;1.88;;;;;;;;;;5040997;28;20053;-61
2023/08/27 12:02:06;;;;;;;4.32;1.98;;;;;;;;;;5043775;28;20119;-61
2023/08/27 12:04:33;;;;;;;4.28;1.73;;;;;;;;;;5043001;28;20140;-62
2023/08/27 12:07:02;;;;;;;5.82;1.63;;;;;;;;;;5041433;28;20056;-61
2023/08/27 12:09:30;;;;;;;5.82;1.80;;;;;;;;;;5040561;28;20053;-61
2023/08/27 12:12:04;;;;;;;4.57;1.67;;;;;;;;;;5059325;28;20064;-61
2023/08/27 12:14:31;;;;;;;3.80;1.40;;;;;;;;;;5033340;28;20088;-61
2023/08/27 12:17:07;;;;;;;2.50;1.17;;;;;;;;;;5042982;28;20055;-62
2023/08/27 12:19:35;;;;;;;3.33;1.17;;;;;;;;;;5041634;28;20053;-61
2023/08/27 12:22:02;;;;;;;4.20;1.25;;;;;;;;;;5049445;28;20054;-61
2023/08/27 12:24:30;;;;;;;1.20;0.90;;;;;;;;;;5008833;28;20068;-63
2023/08/27 12:26:56;;;;;;;8.60;3.88;;;;;;;;;;5025899;28;20057;-61
2023/08/27 12:29:27;;;;;;;7.07;3.40;;;;;;;;;;5043985;28;20140;-62
2023/08/27 12:31:55;;;;;;;8.30;3.17;;;;;;;;;;5044159;28;20310;-60
2023/08/27 12:34:34;;;;;;;10.18;5.10;;;;;;;;;;5030325;28;20050;-61
2023/08/27 12:37:02;;;;;;;2.55;1.08;;;;;;;;;;5023883;28;20088;-61
2023/08/27 12:39:30;;;;;;;2.38;1.10;;;;;;;;;;5025670;28;20091;-62
2023/08/27 12:41:56;;;;;;;0.90;0.60;;;;;;;;;;5025663;28;20076;-61
2023/08/27 12:44:23;;;;;;;2.03;1.23;;;;;;;;;;5013468;28;20131;-60
2023/08/27 12:46:50;;;;;;;3.22;0.90;;;;;;;;;;5042844;28;20068;-63
2023/08/27 12:49:16;;;;;;;2.95;0.88;;;;;;;;;;5042880;28;20155;-60
2023/08/27 12:51:46;;;;;;;1.77;0.90;;;;;;;;;;5039018;28;20123;-60
2023/08/27 12:54:13;;;;;;;0.90;0.70;;;;;;;;;;5031448;28;20132;-61
2023/08/27 12:56:42;;;;;;;3.22;0.70;;;;;;;;;;5034265;28;20060;-63
2023/08/27 12:59:08;;;;;;;;;;;;;;;;;;5043989;28;20053;-63
2023/08/27 13:01:35;;;;;;;1.83;0.60;;;;;;;;;;5047941;28;19920;-62
2023/08/27 13:04:02;;;;;;;1.13;0.60;;;;;;;;;;5035026;28;20061;-62
2023/08/27 13:06:29;;;;;;;0.30;0.30;;;;;;;;;;5037900;28;20059;-62
2023/08/27 13:08:58;;;;;;;0.75;0.52;;;;;;;;;;5044716;28;20045;-61
2023/08/27 13:11:24;;;;;;;;;;;;;;;;;;5046653;28;20056;-61
2023/08/27 13:13:51;;;;;;;1.35;0.50;;;;;;;;;;5024342;28;19997;-61
2023/08/27 13:16:18;;;;;;;0.57;0.50;;;;;;;;;;5030125;28;20046;-62
2023/08/27 13:18:45;;;;;;;0.80;0.60;;;;;;;;;;5022507;28;20083;-61
2023/08/27 13:21:12;;;;;;;1.42;0.80;;;;;;;;;;5027610;28;20056;-62
2023/08/27 13:23:39;;;;;;;0.85;0.70;;;;;;;;;;5043325;28;20057;-62
2023/08/27 13:26:07;;;;;;;1.42;0.57;;;;;;;;;;5037583;28;20094;-61
2023/08/27 13:28:34;;;;;;;2.30;0.60;;;;;;;;;;5042011;28;20056;-62
2023/08/27 13:31:02;;;;;;;1.80;0.70;;;;;;;;;;5058708;28;20056;-62
2023/08/27 13:33:29;;;;;;;1.50;0.70;;;;;;;;;;5022309;28;20044;-62
2023/08/27 13:35:55;;;;;;;3.72;0.80;;;;;;;;;;5021024;28;20050;-61
2023/08/27 13:38:22;;;;;;;0.93;0.65;;;;;;;;;;5023469;28;20060;-62
2023/08/27 13:40:49;;;;;;;0.80;0.60;;;;;;;;;;5044243;28;20084;-61
2023/08/27 13:43:17;;;;;;;2.20;0.65;;;;;;;;;;5044463;28;20062;-62
2023/08/27 13:45:44;;;;;;;0.70;0.70;;;;;;;;;;5039749;28;20102;-60
2023/08/27 13:48:13;;;;;;;5.40;0.80;;;;;;;;;;5058633;28;20094;-61
2023/08/27 13:50:41;;;;;;;1.92;0.70;;;;;;;;;;5051493;28;20160;-60
2023/08/27 13:53:08;;;;;;;3.67;0.75;;;;;;;;;;5072529;28;20064;-60
2023/08/27 13:55:34;;;;;;;1.13;0.70;;;;;;;;;;5036077;28;20061;-60
2023/08/27 13:58:03;;;;;;;1.48;0.70;;;;;;;;;;5039343;28;20112;-60
2023/08/27 14:00:34;;;;;;;1.27;0.73;;;;;;;;;;5054761;28;20053;-61
2023/08/27 14:03:01;;;;;;;1.27;0.70;;;;;;;;;;5042919;28;20045;-60
2023/08/27 14:05:28;;;;;;;4.93;0.85;;;;;;;;;;5052419;28;20117;-61
2023/08/27 14:07:55;;;;;;;1.73;0.90;;;;;;;;;;5064795;28;20088;-59
2023/08/27 14:10:22;;;;;;;1.63;1.00;;;;;;;;;;5058745;28;20125;-60
2023/08/27 14:12:49;;;;;;;15.50;7.07;;;;;;;;;;5049823;28;20060;-60
2023/08/27 14:15:16;;;;;;;4.63;1.70;;;;;;;;;;5034672;28;20056;-60
2023/08/27 14:17:44;;;;;;;2.33;1.20;;;;;;;;;;5043753;28;20144;-60
2023/08/27 14:20:12;;;;;;;1.48;0.80;;;;;;;;;;5040081;28;20057;-61
2023/08/27 14:22:39;;;;;;;3.53;1.17;;;;;;;;;;5041106;28;20083;-60
2023/08/27 14:25:09;;;;;;;1.65;0.90;;;;;;;;;;5026092;28;20064;-59
2023/08/27 14:27:36;;;;;;;1.98;1.00;;;;;;;;;;5042802;28;20061;-60
2023/08/27 14:30:05;;;;;;;2.75;1.08;;;;;;;;;;5057009;28;20075;-60
2023/08/27 14:32:32;;;;;;;2.17;0.98;;;;;;;;;;5019724;28;20059;-61
2023/08/27 14:35:00;;;;;;;1.48;0.98;;;;;;;;;;5026976;28;20063;-60
2023/08/27 14:37:27;;;;;;;2.42;1.10;;;;;;;;;;5044055;28;20106;-61
2023/08/27 14:39:54;;;;;;;1.98;1.30;;;;;;;;;;5042597;28;20060;-60
2023/08/27 14:42:21;;;;;;;3.42;1.33;;;;;;;;;;5032966;28;20142;-61
2023/08/27 14:44:47;;;;;;;2.58;1.30;;;;;;;;;;5034759;28;20056;-60
2023/08/27 14:47:14;;;;;;;4.63;1.27;;;;;;;;;;5040153;28;20053;-61
2023/08/27 14:49:41;;;;;;;2.92;1.30;;;;;;;;;;5059492;28;20113;-60
2023/08/27 14:52:10;;;;;;;3.00;1.40;;;;;;;;;;5057335;28;20269;-61